Time;durP1;ratioP1;P1;durP2;ratioP2;P2;SDS_P1;SDS_P2;PMS_P1;PMS_P2;Temp;Humidity;BMP_temperature;BMP_pressure;BME280_temperature;BME280_humidity;BME280_pressure;Samples;Min_cycle;Max_cycle;Signal;HPM_P1;HPM_P2
2022/06/24 00:01:53;;;;;;;4.63;1.70;;;;;;;16.91;100.00;156770.47;5065559;28;20043;-77
2022/06/24 00:04:30;;;;;;;2.13;1.80;;;;;;;16.86;100.00;156756.28;5051715;28;20044;-78
2022/06/24 00:06:59;;;;;;;1.67;1.58;;;;;;;16.78;100.00;156736.88;5041453;28;20024;-77
2022/06/24 00:09:30;;;;;;;2.78;2.00;;;;;;;16.78;100.00;156735.63;5031047;28;20041;-77
2022/06/24 00:12:07;;;;;;;4.47;2.03;;;;;;;16.73;100.00;156725.31;5052866;28;20033;-79
2022/06/24 00:14:35;;;;;;;3.03;1.83;;;;;;;16.76;100.00;156731.75;5040519;28;20055;-78
2022/06/24 00:17:04;;;;;;;2.40;1.75;;;;;;;16.80;100.00;156742.09;5033122;28;20608;-78
2022/06/24 00:19:34;;;;;;;6.90;2.25;;;;;;;16.77;100.00;156734.34;5084204;28;20064;-77
2022/06/24 00:22:12;;;;;;;3.70;1.83;;;;;;;16.76;100.00;156731.75;5032807;28;20029;-77
2022/06/24 00:24:40;;;;;;;2.33;1.80;;;;;;;16.72;100.00;156722.72;5051467;28;20491;-78
2022/06/24 00:27:35;;;;;;;2.67;1.88;;;;;;;16.72;100.00;156721.44;5047085;28;20147;-77
2022/06/24 00:30:13;;;;;;;4.78;1.67;;;;;;;16.68;100.00;156712.44;5039336;28;20044;-78
2022/06/24 00:32:39;;;;;;;2.30;1.67;;;;;;;16.70;100.00;156717.56;5052302;28;20085;-76
2022/06/24 00:35:09;;;;;;;3.13;1.90;;;;;;;16.76;100.00;156730.47;5032481;28;20119;-75
2022/06/24 00:37:36;;;;;;;9.27;2.38;;;;;;;16.81;100.00;156744.63;5063827;28;20033;-76
2022/06/24 00:40:11;;;;;;;6.50;1.77;;;;;;;16.95;100.00;156779.44;5052154;28;20040;-78
2022/06/24 00:42:42;;;;;;;5.00;2.22;;;;;;;17.07;100.00;156809.09;5064846;28;20049;-78
2022/06/24 00:45:17;;;;;;;7.95;1.75;;;;;;;17.00;100.00;156792.31;5067010;28;20041;-78
2022/06/24 00:47:44;;;;;;;2.80;1.67;;;;;;;17.36;98.16;156882.50;5067309;28;20032;-78
2022/06/24 00:50:22;;;;;;;2.80;1.80;;;;;;;17.34;97.50;156876.06;5035460;28;20044;-76
2022/06/24 00:52:49;;;;;;;1.75;1.65;;;;;;;17.34;98.26;156877.34;5049443;28;20029;-76
2022/06/24 00:55:20;;;;;;;2.35;1.70;;;;;;;17.26;98.61;156856.75;5048863;28;20040;-77
2022/06/24 00:57:45;;;;;;;2.63;1.85;;;;;;;17.22;98.02;156847.72;5037338;28;20029;-77
2022/06/24 01:00:13;;;;;;;4.20;1.90;;;;;;;17.19;97.95;156838.69;5053525;28;20135;-78
2022/06/24 01:02:40;;;;;;;2.65;1.98;;;;;;;17.21;97.94;156845.13;5052248;28;20048;-77
2022/06/24 01:05:11;;;;;;;3.65;1.70;;;;;;;17.32;97.91;156873.47;5035432;28;20064;-77
2022/06/24 01:07:38;;;;;;;4.07;2.00;;;;;;;17.44;96.00;156903.13;5045844;28;20324;-79
2022/06/24 01:10:05;;;;;;;5.07;2.25;;;;;;;17.50;95.24;156917.31;5066086;28;20047;-77
2022/06/24 01:12:32;;;;;;;2.30;1.67;;;;;;;17.42;95.66;156897.97;5033800;28;20495;-77
2022/06/24 01:14:58;;;;;;;6.82;2.28;;;;;;;17.65;93.37;156955.94;5068339;28;20036;-78
2022/06/24 01:17:23;;;;;;;3.70;2.03;;;;;;;17.57;93.58;156935.31;5051513;28;20032;-77
2022/06/24 01:19:49;;;;;;;2.90;1.83;;;;;;;17.69;92.65;156966.25;5027272;28;20032;-78
2022/06/24 01:22:25;;;;;;;5.07;2.38;;;;;;;17.74;92.24;156976.53;5032179;28;20028;-77
2022/06/24 01:24:52;;;;;;;6.20;2.13;;;;;;;17.71;92.50;156971.38;5032543;28;20121;-76
2022/06/24 01:27:19;;;;;;;3.33;2.00;;;;;;;17.66;93.01;156958.50;5037835;28;20032;-78
2022/06/24 01:29:45;;;;;;;5.30;2.10;;;;;;;17.58;93.17;156936.63;5046702;28;20036;-77
2022/06/24 01:32:12;;;;;;;4.20;2.00;;;;;;;17.44;93.52;156903.13;5033544;28;20496;-76
2022/06/24 01:34:38;;;;;;;5.13;2.00;;;;;;;17.47;93.00;156910.81;5058418;28;20130;-78
2022/06/24 01:37:04;;;;;;;6.80;2.08;;;;;;;17.51;93.34;156919.84;5047307;28;20032;-78
2022/06/24 01:39:30;;;;;;;5.40;2.00;;;;;;;17.44;93.49;156901.81;5055013;28;20040;-77
2022/06/24 01:41:57;;;;;;;10.45;2.15;;;;;;;17.33;94.03;156874.78;5062576;28;20039;-77
2022/06/24 01:44:23;;;;;;;6.28;2.10;;;;;;;17.20;94.28;156842.56;5036254;28;20155;-75
2022/06/24 01:46:50;;;;;;;3.60;2.42;;;;;;;17.15;95.84;156828.41;5047595;28;20533;-78
2022/06/24 01:49:16;;;;;;;2.40;2.20;;;;;;;17.09;95.72;156815.50;5044610;28;20053;-77
2022/06/24 01:51:45;;;;;;;4.18;2.00;;;;;;;17.17;95.45;156833.56;5041496;28;20068;-78
2022/06/24 01:54:11;;;;;;;4.00;2.15;;;;;;;17.11;95.37;156819.38;5041632;28;20032;-77
2022/06/24 01:56:38;;;;;;;4.55;2.13;;;;;;;17.22;94.85;156846.44;5076736;28;20062;-79
2022/06/24 01:59:03;;;;;;;5.47;2.30;;;;;;;17.23;95.46;156849.00;5058520;28;20470;-78
2022/06/24 02:01:29;;;;;;;6.88;2.40;;;;;;;17.19;94.90;156839.97;5066198;28;20032;-77
2022/06/24 02:03:55;;;;;;;5.20;2.40;;;;;;;17.10;95.50;156816.78;5083250;28;20446;-77
2022/06/24 02:06:21;;;;;;;7.38;2.20;;;;;;;17.04;95.36;156802.63;5049079;28;20137;-78
2022/06/24 02:08:46;;;;;;;8.23;2.30;;;;;;;16.94;96.20;156776.88;5051351;28;20695;-78
2022/06/24 02:14:04;;;;;;;4.63;2.30;;;;;;;16.96;96.22;156782.03;5064513;28;20468;-78
2022/06/24 02:16:31;;;;;;;5.78;2.38;;;;;;;16.77;97.07;156733.06;5029297;28;20036;-78
2022/06/24 02:18:57;;;;;;;4.85;1.98;;;;;;;16.70;97.52;156717.56;5037335;28;20316;-78
2022/06/24 02:21:23;;;;;;;9.02;2.53;;;;;;;16.67;98.15;156708.56;5033330;28;20170;-78
2022/06/24 02:23:49;;;;;;;3.50;2.17;;;;;;;16.60;98.59;156691.84;5035310;28;20044;-78
2022/06/24 02:26:15;;;;;;;4.30;2.28;;;;;;;16.53;99.30;156673.81;5049062;28;20564;-78
2022/06/24 02:28:41;;;;;;;5.35;2.97;;;;;;;16.45;99.71;156654.50;5078886;28;20072;-78
2022/06/24 02:31:07;;;;;;;4.60;2.47;;;;;;;16.51;100.00;156669.94;5053377;28;20060;-77
2022/06/24 02:33:32;;;;;;;3.65;2.50;;;;;;;16.43;100.00;156649.34;5050688;28;20048;-77
2022/06/24 02:35:58;;;;;;;5.00;2.30;;;;;;;16.37;100.00;156632.59;5051608;28;20070;-77
2022/06/24 02:38:24;;;;;;;5.45;2.38;;;;;;;16.41;100.00;156642.94;5049734;28;20030;-77
2022/06/24 02:40:51;;;;;;;4.30;2.17;;;;;;;16.41;100.00;156642.94;5030115;28;20025;-78
2022/06/24 02:43:18;;;;;;;5.65;2.40;;;;;;;16.47;100.00;156659.66;5034690;28;20036;-77
2022/06/24 02:45:45;;;;;;;3.45;2.22;;;;;;;16.42;100.00;156646.75;5074057;28;20160;-78
2022/06/24 02:48:11;;;;;;;3.42;2.28;;;;;;;16.45;100.00;156654.50;5065848;28;20029;-75
2022/06/24 02:50:45;;;;;;;5.90;2.25;;;;;;;16.68;99.01;156711.16;5037205;28;20041;-77
2022/06/24 02:53:12;;;;;;;4.00;2.55;;;;;;;16.89;97.03;156765.28;5041856;28;20566;-78
2022/06/24 02:55:38;;;;;;;3.47;1.92;;;;;;;17.11;95.75;156819.38;5058838;28;20056;-75
2022/06/24 02:58:07;;;;;;;4.80;2.20;;;;;;;17.14;95.56;156827.13;5053906;28;20124;-78
2022/06/24 03:00:33;;;;;;;4.75;2.13;;;;;;;17.16;95.59;156832.28;5064277;28;20041;-78
2022/06/24 03:02:59;;;;;;;4.10;2.35;;;;;;;17.19;94.85;156838.69;5053408;28;20036;-78
2022/06/24 03:05:25;;;;;;;3.65;2.30;;;;;;;17.25;94.55;156854.16;5042864;28;20097;-78
2022/06/24 03:07:51;;;;;;;3.38;2.10;;;;;;;17.29;95.01;156865.75;5035506;28;20032;-78
2022/06/24 03:10:17;;;;;;;4.72;2.08;;;;;;;17.57;91.68;156935.31;5067789;28;20131;-78
2022/06/24 03:12:43;;;;;;;2.42;2.17;;;;;;;17.52;92.67;156922.44;5049673;28;20036;-75
2022/06/24 03:15:09;;;;;;;3.15;2.08;;;;;;;17.58;91.66;156937.91;5050188;28;20025;-78
2022/06/24 03:17:36;;;;;;;3.70;2.15;;;;;;;17.52;92.37;156923.72;5043618;28;20041;-76
2022/06/24 03:20:03;;;;;;;3.40;2.08;;;;;;;17.50;92.19;156918.56;5079819;28;20024;-77
2022/06/24 03:22:28;;;;;;;3.28;1.85;;;;;;;17.49;93.12;156914.69;5067706;28;20096;-77
2022/06/24 03:24:54;;;;;;;3.90;2.13;;;;;;;17.62;91.34;156948.19;5032087;28;20131;-77
2022/06/24 03:27:20;;;;;;;2.75;2.03;;;;;;;17.65;91.01;156954.63;5047180;28;20059;-78
2022/06/24 03:29:46;;;;;;;4.70;2.13;;;;;;;17.60;91.60;156943.03;5048176;28;20037;-77
2022/06/24 03:32:12;;;;;;;2.42;1.98;;;;;;;17.59;92.51;156939.16;5049063;28;20059;-78
2022/06/24 03:34:38;;;;;;;4.35;2.05;;;;;;;17.68;90.20;156962.38;5047077;28;20804;-78
2022/06/24 03:37:04;;;;;;;5.00;1.95;;;;;;;17.67;91.24;156959.81;5046876;28;20033;-78
2022/06/24 03:39:30;;;;;;;4.18;2.20;;;;;;;17.70;90.66;156968.78;5080200;28;20047;-77
2022/06/24 03:41:56;;;;;;;5.43;2.30;;;;;;;17.87;89.00;157010.09;5031732;28;20029;-77
2022/06/24 03:44:21;;;;;;;7.00;2.17;;;;;;;17.90;89.44;157017.84;5050390;28;20403;-76
2022/06/24 03:46:49;;;;;;;5.88;2.45;;;;;;;17.86;90.76;157007.53;5060132;28;20048;-77
2022/06/24 03:49:15;;;;;;;3.10;2.20;;;;;;;17.91;88.85;157020.38;5064307;28;20029;-76
2022/06/24 03:51:42;;;;;;;2.03;1.83;;;;;;;17.90;90.44;157019.13;5049140;28;20029;-76
2022/06/24 03:54:07;;;;;;;6.82;2.10;;;;;;;18.12;87.36;157071.94;5045206;28;20500;-77
2022/06/24 03:56:33;;;;;;;6.35;2.28;;;;;;;18.18;87.95;157088.72;5077021;28;20057;-77
2022/06/24 03:58:59;;;;;;;2.33;1.90;;;;;;;18.24;87.82;157104.16;5047236;28;20103;-77
2022/06/24 04:01:24;;;;;;;4.32;1.90;;;;;;;18.35;86.11;157129.97;5034409;28;20050;-78
2022/06/24 04:03:50;;;;;;;4.20;2.17;;;;;;;18.51;85.07;157169.91;5027881;28;20147;-76
2022/06/24 04:06:16;;;;;;;2.88;1.83;;;;;;;18.58;84.78;157187.97;5051127;28;20036;-77
2022/06/24 04:08:42;;;;;;;5.57;2.10;;;;;;;18.69;84.48;157216.31;5038640;28;20036;-78
2022/06/24 04:11:09;;;;;;;4.20;1.90;;;;;;;18.62;84.97;157199.53;5052587;28;20032;-78
2022/06/24 04:13:35;;;;;;;4.82;2.40;;;;;;;18.62;85.01;157198.28;5053866;28;20122;-77
2022/06/24 04:16:00;;;;;;;4.72;2.00;;;;;;;18.56;85.70;157184.09;5046537;28;20036;-77
2022/06/24 04:18:26;;;;;;;4.28;2.05;;;;;;;18.60;85.74;157194.38;5046517;28;20071;-78
2022/06/24 04:20:52;;;;;;;4.53;1.80;;;;;;;18.66;84.66;157209.84;5053370;28;20038;-78
2022/06/24 04:23:17;;;;;;;2.55;2.22;;;;;;;18.73;84.88;157225.34;5033721;28;20036;-77
2022/06/24 04:25:46;;;;;;;3.00;1.98;;;;;;;18.68;84.99;157215.06;5033632;28;20071;-77
2022/06/24 04:28:12;;;;;;;3.17;2.00;;;;;;;18.73;85.01;157226.63;5047831;28;20093;-77
2022/06/24 04:30:37;;;;;;;3.38;2.17;;;;;;;18.63;85.55;157202.16;5028567;28;20134;-77
2022/06/24 04:33:03;;;;;;;5.15;2.00;;;;;;;18.71;85.37;157220.19;5037899;28;20449;-75
2022/06/24 04:35:29;;;;;;;2.80;2.00;;;;;;;18.75;84.90;157231.78;5068184;28;20041;-78
2022/06/24 04:37:54;;;;;;;7.15;2.30;;;;;;;18.83;84.63;157251.16;5057261;28;20044;-78
2022/06/24 04:40:20;;;;;;;3.45;1.80;;;;;;;18.81;85.20;157247.28;5054884;28;20060;-76
2022/06/24 04:42:46;;;;;;;5.43;2.50;;;;;;;18.82;85.21;157249.88;5060776;28;20020;-75
2022/06/24 04:45:12;;;;;;;4.03;2.33;;;;;;;18.91;84.61;157271.81;5069177;28;20060;-75
2022/06/24 04:47:38;;;;;;;3.92;2.20;;;;;;;18.89;86.06;157265.34;5071709;28;21239;-76
2022/06/24 04:50:04;;;;;;;4.25;2.47;;;;;;;18.93;84.72;157275.66;5084387;28;20078;-76
2022/06/24 04:52:31;;;;;;;3.67;2.30;;;;;;;18.96;84.95;157284.69;5067358;28;20058;-76
2022/06/24 04:54:57;;;;;;;4.25;2.38;;;;;;;19.07;84.12;157311.78;5048404;28;20041;-77
2022/06/24 04:57:23;;;;;;;4.05;2.20;;;;;;;19.13;84.31;157327.22;5050605;28;20411;-75
2022/06/24 04:59:48;;;;;;;6.75;2.30;;;;;;;19.15;84.71;157332.38;5072222;28;20479;-76
2022/06/24 05:02:14;;;;;;;3.90;2.00;;;;;;;19.23;84.08;157351.72;5064543;28;20109;-77
2022/06/24 05:04:40;;;;;;;2.53;2.10;;;;;;;19.31;84.29;157371.06;5031362;28;20044;-76
2022/06/24 05:07:06;;;;;;;3.40;2.10;;;;;;;19.36;83.64;157385.25;5037477;28;20049;-76
2022/06/24 05:09:32;;;;;;;3.90;2.15;;;;;;;19.37;84.23;157386.56;5036735;28;20059;-75
2022/06/24 05:11:58;;;;;;;6.03;2.25;;;;;;;19.39;83.81;157391.72;5047883;28;20036;-75
2022/06/24 05:14:24;;;;;;;4.50;2.30;;;;;;;19.48;83.64;157413.63;5054214;28;20837;-76
2022/06/24 05:16:50;;;;;;;5.50;2.33;;;;;;;19.48;83.36;157414.94;5029918;28;20087;-77
2022/06/24 05:19:16;;;;;;;5.55;2.20;;;;;;;19.60;81.97;157444.59;5083325;28;20040;-77
2022/06/24 05:21:41;;;;;;;3.00;2.63;;;;;;;19.64;82.45;157456.19;5049284;28;20032;-76
2022/06/24 05:24:08;;;;;;;3.88;2.30;;;;;;;19.70;82.14;157470.38;5029295;28;20403;-77
2022/06/24 05:26:33;;;;;;;5.88;2.22;;;;;;;19.80;81.29;157496.25;5058152;28;20083;-78
2022/06/24 05:28:59;;;;;;;3.78;2.35;;;;;;;19.87;81.61;157511.72;5034921;28;20056;-76
2022/06/24 05:31:24;;;;;;;4.97;2.80;;;;;;;19.97;81.70;157537.53;5028867;28;20033;-76
2022/06/24 05:33:50;;;;;;;2.83;2.38;;;;;;;19.97;80.80;157537.53;5033012;28;20057;-76
2022/06/24 05:36:16;;;;;;;2.97;2.40;;;;;;;20.06;80.36;157559.44;5048230;28;20475;-77
2022/06/24 05:38:42;;;;;;;3.20;2.40;;;;;;;20.13;80.03;157578.78;5064952;28;20136;-77
2022/06/24 05:41:08;;;;;;;3.33;2.17;;;;;;;20.19;79.16;157592.97;5028455;28;20068;-76
2022/06/24 05:43:34;;;;;;;5.00;2.55;;;;;;;20.23;80.64;157603.34;5084213;28;20071;-78
2022/06/24 05:45:59;;;;;;;5.95;2.55;;;;;;;20.29;80.05;157617.53;5066495;28;20567;-77
2022/06/24 05:48:25;;;;;;;5.22;2.15;;;;;;;20.33;80.10;157627.84;5049427;28;20048;-75
2022/06/24 05:50:51;;;;;;;5.05;2.15;;;;;;;20.39;78.88;157643.31;5035749;28;20025;-76
2022/06/24 05:56:01;;;;;;;3.88;2.30;;;;;;;20.55;79.22;157683.31;5050592;28;20493;-76
2022/06/24 05:58:28;;;;;;;4.78;2.70;;;;;;;20.70;77.50;157722.09;5066875;28;20040;-77
2022/06/24 06:00:57;;;;;;;4.85;2.53;;;;;;;20.85;76.42;157758.22;5027993;28;20120;-77
2022/06/24 06:03:24;;;;;;;5.47;2.42;;;;;;;20.92;76.03;157776.28;5063811;28;20043;-76
2022/06/24 06:05:50;;;;;;;4.18;2.38;;;;;;;20.84;76.00;157755.66;5069140;28;20039;-77
2022/06/24 06:08:17;;;;;;;7.70;2.45;;;;;;;20.95;75.62;157784.06;5052539;28;20057;-74
2022/06/24 06:10:43;;;;;;;8.23;2.72;;;;;;;20.92;74.98;157776.28;5044500;28;20043;-76
2022/06/24 06:13:12;;;;;;;5.70;2.60;;;;;;;20.94;75.01;157781.44;5037353;28;20575;-76
2022/06/24 06:15:40;;;;;;;4.32;2.40;;;;;;;20.92;75.82;157777.56;5052149;28;20055;-77
2022/06/24 06:18:06;;;;;;;4.50;2.20;;;;;;;21.02;75.77;157800.81;5028016;28;20068;-75
2022/06/24 06:20:32;;;;;;;4.70;2.40;;;;;;;21.07;75.00;157815.00;5065539;28;20091;-76
2022/06/24 06:22:57;;;;;;;4.68;2.50;;;;;;;21.03;74.88;157803.41;5049648;28;20024;-76
2022/06/24 06:25:24;;;;;;;6.50;2.63;;;;;;;20.92;76.13;157777.56;5043167;28;20595;-77
2022/06/24 06:27:50;;;;;;;6.72;2.53;;;;;;;20.94;76.39;157782.72;5034570;28;20045;-76
2022/06/24 06:30:16;;;;;;;4.10;2.63;;;;;;;21.00;77.03;157798.25;5063918;28;20144;-78
2022/06/24 06:32:42;;;;;;;4.68;2.58;;;;;;;21.03;76.38;157804.69;5066806;28;20725;-75
2022/06/24 06:35:08;;;;;;;3.67;2.55;;;;;;;21.06;77.14;157812.44;5044257;28;20040;-77
2022/06/24 06:37:34;;;;;;;6.60;2.47;;;;;;;21.08;78.86;157816.28;5030550;28;20135;-76
2022/06/24 06:40:00;;;;;;;6.50;2.80;;;;;;;21.11;77.63;157824.03;5031477;28;20424;-76
2022/06/24 06:42:27;;;;;;;3.10;2.60;;;;;;;21.09;78.85;157818.88;5043530;28;20531;-77
2022/06/24 06:44:53;;;;;;;7.63;2.47;;;;;;;21.15;76.28;157835.69;5065805;28;20050;-76
2022/06/24 06:47:18;;;;;;;5.75;2.33;;;;;;;21.13;77.39;157830.47;5039891;28;20037;-76
2022/06/24 06:49:44;;;;;;;4.72;2.60;;;;;;;21.26;78.86;157861.47;5032675;28;20033;-76
2022/06/24 06:52:10;;;;;;;9.10;2.72;;;;;;;21.34;79.12;157883.44;5064453;28;20040;-76
2022/06/24 06:54:35;;;;;;;3.60;2.80;;;;;;;21.37;76.92;157889.88;5058320;28;20598;-76
2022/06/24 06:57:01;;;;;;;4.28;2.70;;;;;;;;;;5035435;28;20043;-77
2022/06/24 06:59:27;;;;;;;4.65;2.60;;;;;;;21.35;78.74;157886.00;5050333;28;20036;-77
2022/06/24 07:01:52;;;;;;;3.95;2.70;;;;;;;21.60;76.09;157946.75;5030337;28;20036;-77
2022/06/24 07:04:18;;;;;;;6.05;3.08;;;;;;;21.74;75.36;157982.91;5030984;28;20133;-75
2022/06/24 07:06:44;;;;;;;3.38;2.80;;;;;;;21.74;76.28;157984.19;5083070;28;20028;-76
2022/06/24 07:09:10;;;;;;;6.55;3.15;;;;;;;21.91;76.65;158025.53;5032649;28;20033;-77
2022/06/24 07:11:36;;;;;;;5.07;2.88;;;;;;;22.01;76.85;158050.06;5053335;28;20120;-78
2022/06/24 07:14:02;;;;;;;7.38;2.78;;;;;;;22.25;76.47;158112.09;5048047;28;20067;-76
2022/06/24 07:16:27;;;;;;;4.82;2.83;;;;;;;22.42;76.37;158154.72;5070238;28;20150;-77
2022/06/24 07:18:53;;;;;;;3.33;2.42;;;;;;;22.62;74.12;158203.78;5049020;28;20074;-78
2022/06/24 07:21:18;;;;;;;5.47;2.58;;;;;;;22.71;73.25;158228.31;5032161;28;20071;-77
2022/06/24 07:23:44;;;;;;;6.80;2.90;;;;;;;22.88;71.33;158269.69;5065740;28;20120;-79
2022/06/24 07:26:11;;;;;;;4.25;2.53;;;;;;;22.99;71.68;158296.81;5062180;28;20040;-77
2022/06/24 07:28:37;;;;;;;7.50;2.88;;;;;;;23.11;69.38;158327.88;5050459;28;20203;-79
2022/06/24 07:31:17;;;;;;;4.88;2.63;;;;;;;23.21;70.02;158352.47;5048904;28;20031;-75
2022/06/24 07:33:44;;;;;;;4.15;2.42;;;;;;;23.32;70.09;158382.16;5062534;28;21085;-76
2022/06/24 07:36:09;;;;;;;6.82;2.90;;;;;;;23.53;69.38;158433.88;5028090;28;20056;-76
2022/06/24 07:38:35;;;;;;;5.18;2.65;;;;;;;23.62;67.90;158457.13;5026490;28;20079;-76
2022/06/24 07:41:01;;;;;;;6.65;3.00;;;;;;;23.72;68.26;158481.69;5046870;28;20037;-77
2022/06/24 07:43:28;;;;;;;4.80;2.72;;;;;;;23.97;66.20;158545.06;5067712;28;20037;-80
2022/06/24 07:45:54;;;;;;;7.95;2.63;;;;;;;24.06;65.97;158567.06;5051354;28;20040;-77
2022/06/24 07:48:20;;;;;;;4.80;2.60;;;;;;;24.24;65.50;158612.28;5063305;28;20040;-77
2022/06/24 07:50:46;;;;;;;8.77;2.65;;;;;;;24.32;66.42;158633.00;5022796;28;20044;-78
2022/06/24 07:53:11;;;;;;;6.88;2.58;;;;;;;24.46;65.43;158669.16;5076834;28;20048;-78
2022/06/24 07:58:22;;;;;;;5.72;2.35;;;;;;;24.55;65.07;158691.22;5049618;28;20070;-78
2022/06/24 08:00:48;;;;;;;4.25;2.85;;;;;;;24.71;65.47;158730.00;5057223;28;20048;-77
2022/06/24 08:03:17;;;;;;;10.20;2.65;;;;;;;24.95;64.27;158790.78;5045454;28;20708;-77
2022/06/24 08:05:43;;;;;;;4.65;2.90;;;;;;;25.02;62.66;158808.91;5041985;28;20041;-78
2022/06/24 08:08:09;;;;;;;4.07;2.58;;;;;;;25.13;65.33;158837.34;5032291;28;20113;-78
2022/06/24 08:10:35;;;;;;;4.95;2.47;;;;;;;25.30;61.79;158880.09;5064766;28;20115;-76
2022/06/24 08:13:00;;;;;;;5.78;2.50;;;;;;;25.46;61.19;158920.19;5049233;28;20116;-76
2022/06/24 08:15:26;;;;;;;5.35;2.78;;;;;;;25.50;59.61;158929.22;5063095;28;20036;-75
2022/06/24 08:17:52;;;;;;;10.00;2.78;;;;;;;25.66;59.05;158969.38;5054143;28;20119;-76
2022/06/24 08:20:17;;;;;;;3.35;2.38;;;;;;;25.83;57.03;159013.34;5035793;28;20086;-76
2022/06/24 08:22:43;;;;;;;3.95;2.38;;;;;;;26.09;55.27;159078.06;5053045;28;20039;-77
2022/06/24 08:25:09;;;;;;;3.40;2.42;;;;;;;26.17;54.02;159100.06;5049920;28;20044;-78
2022/06/24 08:27:35;;;;;;;6.47;2.30;;;;;;;26.36;53.24;159147.97;5030587;28;20507;-76
2022/06/24 08:30:01;;;;;;;3.15;2.40;;;;;;;26.42;52.80;159163.47;5029166;28;20043;-75
2022/06/24 08:32:26;;;;;;;5.50;2.25;;;;;;;26.64;53.32;159216.63;5050932;28;20694;-76
2022/06/24 08:34:52;;;;;;;7.93;2.40;;;;;;;26.72;53.48;159238.59;5049420;28;20036;-80
2022/06/24 08:37:18;;;;;;;6.38;2.40;;;;;;;26.85;52.53;159270.97;5045488;28;20052;-77
2022/06/24 08:39:43;;;;;;;5.40;2.33;;;;;;;26.86;53.00;159272.25;5050542;28;20048;-77
2022/06/24 08:42:13;;;;;;;5.60;2.55;;;;;;;27.12;50.70;159339.56;5051536;28;20040;-77
2022/06/24 08:44:41;;;;;;;6.03;2.35;;;;;;;27.31;50.35;159387.56;5048878;28;20037;-77
2022/06/24 08:47:12;;;;;;;8.13;2.33;;;;;;;27.39;50.67;159406.97;5065176;28;20025;-76
2022/06/24 08:49:37;;;;;;;2.93;2.60;;;;;;;27.40;50.00;159408.25;5037753;28;20040;-78
2022/06/24 08:52:04;;;;;;;4.57;2.38;;;;;;;27.44;50.42;159418.59;5044745;28;20098;-76
2022/06/24 08:54:34;;;;;;;3.97;2.42;;;;;;;27.63;53.89;159466.53;5075428;28;20033;-77
2022/06/24 08:56:59;;;;;;;4.22;2.40;;;;;;;27.77;51.96;159504.06;5041614;28;20119;-77
2022/06/24 08:59:28;;;;;;;7.45;2.35;;;;;;;28.01;48.31;159563.72;5049200;28;20460;-76
2022/06/24 09:01:56;;;;;;;5.82;2.13;;;;;;;28.18;48.40;159605.13;5055565;28;20033;-77
2022/06/24 09:04:23;;;;;;;8.20;2.35;;;;;;;28.27;47.40;159628.47;5065521;28;20118;-77
2022/06/24 09:06:49;;;;;;;8.00;2.83;;;;;;;28.29;49.17;159633.63;5048583;28;20434;-76
2022/06/24 09:09:25;;;;;;;4.88;2.38;;;;;;;28.19;47.74;159609.03;5045822;28;20036;-76
2022/06/24 09:11:55;;;;;;;3.08;2.60;;;;;;;28.15;47.81;159598.69;5039104;28;20662;-76
2022/06/24 09:14:20;;;;;;;5.70;2.83;;;;;;;28.23;49.47;159619.38;5022475;28;20458;-77
2022/06/24 09:16:46;;;;;;;4.93;2.63;;;;;;;28.42;47.13;159666.03;5066674;28;20081;-75
2022/06/24 09:19:15;;;;;;;4.25;2.40;;;;;;;28.51;47.08;159689.34;5073615;28;20039;-78
2022/06/24 09:21:42;;;;;;;5.40;2.30;;;;;;;28.58;46.51;159706.25;5044357;28;20024;-75
2022/06/24 09:24:08;;;;;;;3.72;2.55;;;;;;;28.84;47.39;159772.28;5054910;28;20412;-76
2022/06/24 09:26:38;;;;;;;3.83;2.35;;;;;;;29.06;45.63;159828.03;5043286;28;20055;-77
2022/06/24 09:29:13;;;;;;;5.05;2.70;;;;;;;29.09;45.88;159837.09;5040389;28;20060;-74
2022/06/24 09:31:39;;;;;;;16.50;2.90;;;;;;;29.16;45.64;159854.00;5044291;28;20043;-76
2022/06/24 09:34:17;;;;;;;4.15;2.65;;;;;;;29.22;45.98;159869.53;5063011;28;20063;-77
2022/06/24 09:36:46;;;;;;;5.75;2.80;;;;;;;29.35;47.14;159901.97;5048388;28;20136;-77
2022/06/24 09:39:13;;;;;;;4.35;2.60;;;;;;;29.51;47.51;159943.41;5031608;28;20039;-77
2022/06/24 09:41:49;;;;;;;3.92;3.00;;;;;;;29.72;47.77;159995.25;5058770;28;20116;-79
2022/06/24 09:44:16;;;;;;;12.50;3.20;;;;;;;29.84;45.55;160025.13;5060359;28;20029;-79
2022/06/24 09:46:42;;;;;;;5.00;2.70;;;;;;;29.93;45.85;160048.41;5037209;28;20411;-77
2022/06/24 09:49:15;;;;;;;4.80;2.92;;;;;;;30.08;46.98;160086.03;5067431;28;20034;-77
2022/06/24 09:51:44;;;;;;;5.95;2.60;;;;;;;30.23;45.21;160124.94;5053304;28;20040;-77
2022/06/24 09:54:11;;;;;;;4.80;2.50;;;;;;;30.14;45.37;160101.63;5025932;28;20025;-77
2022/06/24 09:56:38;;;;;;;8.88;3.30;;;;;;;30.23;44.98;160124.94;5044410;28;20032;-77
2022/06/24 10:01:50;;;;;;;5.68;2.70;;;;;;;30.42;44.67;160171.63;5063252;28;20033;-76
2022/06/24 10:04:20;;;;;;;6.63;2.55;;;;;;;30.49;45.02;160189.78;5041358;28;20037;-76
2022/06/24 10:06:48;;;;;;;9.27;3.15;;;;;;;30.71;45.02;160245.56;5049587;28;20036;-78
2022/06/24 10:09:18;;;;;;;6.05;3.20;;;;;;;30.85;43.99;160280.56;5059265;28;20407;-77
2022/06/24 10:11:44;;;;;;;6.07;3.35;;;;;;;30.90;44.69;160292.25;5042122;28;20037;-78
2022/06/24 10:14:12;;;;;;;7.60;3.10;;;;;;;30.85;42.69;160280.56;5042312;28;20064;-79
2022/06/24 10:16:40;;;;;;;5.20;3.38;;;;;;;31.07;43.48;160336.38;5047771;28;20032;-78
2022/06/24 10:19:07;;;;;;;7.30;2.72;;;;;;;31.07;42.94;160335.09;5022156;28;20518;-77
2022/06/24 10:21:34;;;;;;;6.22;2.85;;;;;;;31.22;44.95;160375.28;5067583;28;20861;-76
2022/06/24 10:24:10;;;;;;;7.78;3.25;;;;;;;31.36;41.29;160409.00;5049642;28;20040;-76
2022/06/24 10:26:39;;;;;;;4.70;2.80;;;;;;;31.23;41.26;160376.56;5056710;28;20449;-78
2022/06/24 10:29:04;;;;;;;5.35;3.10;;;;;;;31.20;42.16;160368.81;5046997;28;20107;-78
2022/06/24 10:31:49;;;;;;;4.78;3.35;;;;;;;31.39;41.54;160418.09;5064769;28;20166;-75
2022/06/24 10:34:25;;;;;;;6.78;3.05;;;;;;;31.68;43.02;160490.75;5023572;28;20041;-77
2022/06/24 10:36:54;;;;;;;6.10;3.10;;;;;;;31.81;42.72;160524.47;5035049;28;20083;-77
2022/06/24 10:39:25;;;;;;;8.40;3.17;;;;;;;31.49;41.28;160441.47;5044030;28;20028;-79
2022/06/24 10:42:10;;;;;;;4.47;3.20;;;;;;;31.52;41.34;160450.56;5025573;28;20039;-78
2022/06/24 10:44:37;;;;;;;7.88;2.78;;;;;;;31.15;41.74;160357.13;5058008;28;20285;-77
2022/06/24 10:47:12;;;;;;;5.70;2.95;;;;;;;30.31;42.63;160144.41;5065842;28;20024;-75
2022/06/24 10:49:50;;;;;;;4.18;2.33;;;;;;;29.83;43.96;160022.53;5037501;28;20044;-76
2022/06/24 10:52:38;;;;;;;4.65;2.55;;;;;;;30.21;43.69;160119.72;5049251;28;20484;-75
2022/06/24 10:55:16;;;;;;;5.40;2.65;;;;;;;30.86;45.26;160283.16;5055765;28;20032;-77
2022/06/24 10:57:55;;;;;;;5.65;2.75;;;;;;;31.27;41.35;160386.97;5056302;28;20044;-78
2022/06/24 11:00:24;;;;;;;4.07;2.50;;;;;;;31.43;42.58;160427.16;5059016;28;20579;-77
2022/06/24 11:03:05;;;;;;;3.97;2.45;;;;;;;31.85;39.70;160532.28;5047914;28;20143;-77
2022/06/24 11:05:34;;;;;;;4.80;2.35;;;;;;;31.88;42.30;160541.38;5062275;28;20052;-77
2022/06/24 11:08:01;;;;;;;7.25;2.83;;;;;;;32.14;39.97;160607.59;5024019;28;20052;-76
2022/06/24 11:10:32;;;;;;;7.28;2.67;;;;;;;31.76;39.35;160510.22;5042223;28;20638;-76
2022/06/24 11:13:00;;;;;;;4.07;2.50;;;;;;;32.02;40.84;160576.44;5048145;28;20031;-76
2022/06/24 11:15:40;;;;;;;4.57;2.50;;;;;;;31.16;42.08;160358.44;5045296;28;20044;-77
2022/06/24 11:18:09;;;;;;;5.15;2.78;;;;;;;30.90;42.00;160293.59;5028620;28;20032;-77
2022/06/24 11:20:37;;;;;;;7.88;2.70;;;;;;;31.02;44.03;160324.72;5064591;28;20040;-77
2022/06/24 11:23:07;;;;;;;8.73;3.17;;;;;;;31.28;42.47;160388.25;5038621;28;20029;-79
2022/06/24 11:25:34;;;;;;;6.78;2.90;;;;;;;31.24;41.35;160380.47;5047219;28;20040;-77
2022/06/24 11:27:59;;;;;;;5.85;2.90;;;;;;;31.14;42.43;160354.53;5037287;28;20558;-78
2022/06/24 11:30:25;;;;;;;6.65;2.65;;;;;;;31.31;42.48;160397.34;5037551;28;20057;-77
2022/06/24 11:32:59;;;;;;;3.55;2.50;;;;;;;31.74;41.12;160506.34;5044133;28;20033;-77
2022/06/24 11:35:26;;;;;;;12.52;2.75;;;;;;;31.97;39.97;160564.72;5045035;28;20737;-78
2022/06/24 11:37:56;;;;;;;5.57;2.50;;;;;;;31.23;39.74;160377.91;5025808;28;20033;-78